Time;durP1;ratioP1;P1;durP2;ratioP2;P2;SDS_P1;SDS_P2;PMS_P1;PMS_P2;Temp;Humidity;BMP_temperature;BMP_pressure;BME280_temperature;BME280_humidity;BME280_pressure;Samples;Min_cycle;Max_cycle;Signal;HPM_P1;HPM_P2
2021/08/21 00:01:11;;;;;;;11.18;6.72;;;;;;;;;;6125553;23;19998;-68
2021/08/21 00:03:37;;;;;;;12.70;5.82;;;;;;;;;;6125681;23;20002;-70
2021/08/21 00:06:04;;;;;;;10.43;6.00;;;;;;;;;;6125129;23;20128;-68
2021/08/21 00:08:30;;;;;;;13.45;5.88;;;;;;;;;;6125701;23;20432;-70
2021/08/21 00:10:56;;;;;;;12.63;6.55;;;;;;;;;;6125586;23;19998;-67
2021/08/21 00:13:23;;;;;;;11.60;6.28;;;;;;;;;;6125854;23;20420;-69
2021/08/21 00:15:49;;;;;;;11.13;6.30;;;;;;;;;;6125969;23;20002;-70
2021/08/21 00:18:15;;;;;;;9.35;6.38;;;;;;;;;;6125252;23;20010;-70
2021/08/21 00:20:41;;;;;;;7.95;4.90;;;;;;;;;;6125628;23;19998;-68
2021/08/21 00:23:07;;;;;;;12.73;5.57;;;;;;;;;;6125554;23;19998;-69
2021/08/21 00:25:33;;;;;;;12.05;6.05;;;;;;;;;;6125632;23;20352;-70
2021/08/21 00:27:59;;;;;;;10.45;4.85;;;;;;;;;;6125636;23;20002;-68
2021/08/21 00:30:26;;;;;;;9.35;5.63;;;;;;;;;;6125689;23;20002;-68
2021/08/21 00:32:52;;;;;;;9.63;5.35;;;;;;;;;;6125973;23;19998;-70
2021/08/21 00:35:18;;;;;;;10.35;5.93;;;;;;;;;;6125775;23;20076;-70
2021/08/21 00:37:44;;;;;;;8.82;5.20;;;;;;;;;;6125595;23;20428;-68
2021/08/21 00:40:10;;;;;;;9.15;5.15;;;;;;;;;;6125136;23;20073;-67
2021/08/21 00:42:37;;;;;;;11.13;5.50;;;;;;;;;;6099850;23;20002;-70
2021/08/21 00:45:04;;;;;;;8.75;5.93;;;;;;;;;;6125546;23;20008;-70
2021/08/21 00:47:29;;;;;;;12.18;5.47;;;;;;;;;;6125551;23;20001;-68
2021/08/21 00:49:55;;;;;;;15.55;5.88;;;;;;;;;;6125650;23;20006;-70
2021/08/21 00:52:26;;;;;;;10.95;6.25;;;;;;;;;;6125368;23;20032;-67
2021/08/21 00:54:53;;;;;;;8.60;5.40;;;;;;;;;;6125526;23;20012;-67
2021/08/21 00:57:18;;;;;;;11.15;5.80;;;;;;;;;;6125650;23;20486;-68
2021/08/21 00:59:45;;;;;;;16.52;5.63;;;;;;;;;;6125406;23;19997;-69
2021/08/21 01:02:12;;;;;;;16.42;5.80;;;;;;;;;;6099368;23;20439;-69
2021/08/21 01:04:39;;;;;;;13.90;6.72;;;;;;;;;;6095229;23;20025;-69
2021/08/21 01:07:07;;;;;;;10.75;4.97;;;;;;;;;;6097933;23;19998;-68
2021/08/21 01:09:35;;;;;;;10.13;5.30;;;;;;;;;;6096521;23;19998;-67
2021/08/21 01:12:02;;;;;;;12.55;6.05;;;;;;;;;;6097637;23;19998;-70
2021/08/21 01:14:28;;;;;;;10.18;5.78;;;;;;;;;;6097999;23;20002;-69
2021/08/21 01:16:54;;;;;;;12.27;6.20;;;;;;;;;;6097943;23;20010;-70
2021/08/21 01:19:21;;;;;;;11.55;6.28;;;;;;;;;;6098115;23;20336;-68
2021/08/21 01:21:47;;;;;;;9.27;5.35;;;;;;;;;;6097752;23;20000;-68
2021/08/21 01:24:15;;;;;;;10.07;5.30;;;;;;;;;;6097498;23;20003;-70
2021/08/21 01:26:49;;;;;;;11.02;5.32;;;;;;;;;;6097913;23;19998;-68
2021/08/21 01:29:14;;;;;;;8.65;5.85;;;;;;;;;;6097705;23;20420;-69
2021/08/21 01:31:39;;;;;;;8.07;5.30;;;;;;;;;;6097860;23;20002;-68
2021/08/21 01:34:05;;;;;;;14.23;6.03;;;;;;;;;;6097391;23;20034;-70
2021/08/21 01:36:45;;;;;;;9.95;5.82;;;;;;;;;;6097592;23;20029;-69
2021/08/21 01:39:12;;;;;;;9.68;5.55;;;;;;;;;;6095229;23;20062;-70
2021/08/21 01:41:40;;;;;;;11.05;5.55;;;;;;;;;;6097531;23;20085;-70
2021/08/21 01:44:09;;;;;;;7.30;5.35;;;;;;;;;;6097496;23;20005;-69
2021/08/21 01:46:34;;;;;;;10.82;5.68;;;;;;;;;;6097555;23;20424;-69
2021/08/21 01:49:07;;;;;;;12.73;6.07;;;;;;;;;;6097330;23;19998;-69
2021/08/21 01:51:33;;;;;;;10.88;5.55;;;;;;;;;;6095617;23;20371;-69
2021/08/21 01:53:59;;;;;;;10.40;6.00;;;;;;;;;;6094357;23;20002;-67
2021/08/21 01:56:26;;;;;;;7.65;5.65;;;;;;;;;;6097425;23;20496;-68
2021/08/21 01:58:51;;;;;;;10.70;5.57;;;;;;;;;;6097658;23;20033;-69
2021/08/21 02:01:17;;;;;;;11.68;5.45;;;;;;;;;;6096082;23;20431;-70
2021/08/21 02:03:46;;;;;;;12.77;6.13;;;;;;;;;;6097219;23;20356;-68
2021/08/21 02:06:13;;;;;;;9.67;5.83;;;;;;;;;;6121916;23;20060;-69
2021/08/21 02:08:39;;;;;;;14.40;5.90;;;;;;;;;;6126610;23;20438;-69
2021/08/21 02:11:06;;;;;;;9.50;5.97;;;;;;;;;;6126606;23;20001;-67
2021/08/21 02:13:33;;;;;;;11.60;6.10;;;;;;;;;;6126633;23;19994;-69
2021/08/21 02:15:59;;;;;;;9.60;6.05;;;;;;;;;;6126170;23;20002;-69
2021/08/21 02:18:25;;;;;;;11.68;5.13;;;;;;;;;;6126250;23;20025;-68
2021/08/21 02:20:51;;;;;;;11.02;6.07;;;;;;;;;;6126535;23;20089;-70
2021/08/21 02:23:17;;;;;;;12.70;6.50;;;;;;;;;;6126620;23;20025;-70
2021/08/21 02:25:43;;;;;;;9.50;5.20;;;;;;;;;;6126555;23;20006;-70
2021/08/21 02:28:18;;;;;;;11.68;5.88;;;;;;;;;;6126174;23;19998;-70
2021/08/21 02:30:45;;;;;;;7.97;5.18;;;;;;;;;;6126629;23;20013;-69
2021/08/21 02:33:11;;;;;;;10.32;6.07;;;;;;;;;;6126294;23;20002;-69
2021/08/21 02:35:38;;;;;;;12.82;6.13;;;;;;;;;;6126396;23;20002;-69
2021/08/21 02:38:05;;;;;;;8.63;5.65;;;;;;;;;;6126095;23;20069;-68
2021/08/21 02:40:31;;;;;;;9.80;5.95;;;;;;;;;;6126231;23;20005;-69
2021/08/21 02:42:56;;;;;;;11.07;6.18;;;;;;;;;;6126215;23;20005;-69
2021/08/21 02:45:23;;;;;;;7.53;5.18;;;;;;;;;;6126358;23;19998;-68
2021/08/21 02:47:49;;;;;;;8.10;5.43;;;;;;;;;;6126357;23;20002;-69
2021/08/21 02:50:15;;;;;;;8.95;5.53;;;;;;;;;;6126082;23;19994;-69
2021/08/21 02:52:41;;;;;;;9.85;5.32;;;;;;;;;;6126231;23;20002;-69
2021/08/21 02:55:07;;;;;;;9.35;6.15;;;;;;;;;;6126107;23;20052;-68
2021/08/21 02:57:33;;;;;;;10.20;5.53;;;;;;;;;;6126163;23;20032;-70
2021/08/21 02:59:59;;;;;;;12.38;5.70;;;;;;;;;;6125854;23;20056;-69
2021/08/21 03:02:25;;;;;;;11.27;6.05;;;;;;;;;;6126162;23;20009;-70
2021/08/21 03:04:52;;;;;;;15.00;5.93;;;;;;;;;;6126015;23;20018;-70
2021/08/21 03:07:18;;;;;;;11.68;5.65;;;;;;;;;;6126195;23;19998;-70
2021/08/21 03:09:45;;;;;;;10.55;5.72;;;;;;;;;;6126059;23;20006;-70
2021/08/21 03:12:10;;;;;;;11.20;5.45;;;;;;;;;;6099687;23;20531;-66
2021/08/21 03:14:37;;;;;;;10.57;6.05;;;;;;;;;;6125984;23;20025;-69
2021/08/21 03:17:03;;;;;;;11.20;6.28;;;;;;;;;;6125836;23;20005;-68
2021/08/21 03:19:29;;;;;;;15.50;6.20;;;;;;;;;;6125950;23;20317;-68
2021/08/21 03:21:54;;;;;;;13.15;6.47;;;;;;;;;;6126033;23;20033;-70
2021/08/21 03:24:21;;;;;;;13.57;6.13;;;;;;;;;;6125910;23;19994;-68
2021/08/21 03:26:47;;;;;;;11.93;5.95;;;;;;;;;;6125950;23;20032;-68
2021/08/21 03:29:13;;;;;;;9.80;6.07;;;;;;;;;;6125724;23;20002;-70
2021/08/21 03:31:39;;;;;;;12.55;6.55;;;;;;;;;;6125824;23;20008;-69
2021/08/21 03:34:05;;;;;;;12.35;6.88;;;;;;;;;;6126131;23;20025;-68
2021/08/21 03:36:32;;;;;;;16.05;6.80;;;;;;;;;;6126136;23;20004;-70
2021/08/21 03:38:59;;;;;;;11.73;5.93;;;;;;;;;;6125859;23;20002;-69
2021/08/21 03:41:24;;;;;;;12.18;6.40;;;;;;;;;;6125968;23;20002;-69
2021/08/21 03:43:50;;;;;;;10.43;6.32;;;;;;;;;;6125927;23;20009;-69
2021/08/21 03:46:16;;;;;;;8.88;5.93;;;;;;;;;;6125416;23;20021;-68
2021/08/21 03:48:42;;;;;;;13.45;6.65;;;;;;;;;;6125734;23;20377;-69
2021/08/21 03:51:07;;;;;;;11.68;6.80;;;;;;;;;;6100171;23;20002;-68
2021/08/21 03:53:34;;;;;;;10.57;6.38;;;;;;;;;;6125750;23;20009;-70
2021/08/21 03:56:00;;;;;;;11.98;6.97;;;;;;;;;;6125405;23;19998;-70
2021/08/21 03:58:25;;;;;;;11.98;6.60;;;;;;;;;;6125808;23;20058;-69
2021/08/21 04:00:52;;;;;;;15.50;6.72;;;;;;;;;;6125795;23;19994;-70
2021/08/21 04:03:18;;;;;;;11.80;6.05;;;;;;;;;;6125678;23;20096;-69
2021/08/21 04:05:44;;;;;;;12.35;6.18;;;;;;;;;;6125219;23;20029;-70
2021/08/21 04:08:10;;;;;;;10.90;6.40;;;;;;;;;;6099517;23;20002;-70
2021/08/21 04:10:37;;;;;;;12.75;6.13;;;;;;;;;;6125803;23;20002;-67
2021/08/21 04:13:03;;;;;;;13.57;6.45;;;;;;;;;;6125622;23;20009;-69
2021/08/21 04:15:30;;;;;;;19.88;7.35;;;;;;;;;;6125506;23;20439;-69
2021/08/21 04:17:55;;;;;;;20.48;9.52;;;;;;;;;;6125548;23;20014;-70
2021/08/21 04:20:22;;;;;;;28.98;8.02;;;;;;;;;;6125479;23;20002;-69
2021/08/21 04:22:48;;;;;;;16.80;7.05;;;;;;;;;;6125633;23;20002;-70
2021/08/21 04:25:14;;;;;;;15.27;7.13;;;;;;;;;;6125540;23;20029;-68
2021/08/21 04:27:40;;;;;;;12.00;7.30;;;;;;;;;;6125669;23;19998;-69
2021/08/21 04:30:06;;;;;;;12.40;6.93;;;;;;;;;;6125230;23;19998;-70
2021/08/21 04:32:33;;;;;;;16.30;7.82;;;;;;;;;;6125610;23;20057;-70
2021/08/21 04:34:59;;;;;;;18.35;6.90;;;;;;;;;;6125580;23;19998;-69
2021/08/21 04:37:24;;;;;;;17.65;7.38;;;;;;;;;;6125652;23;20391;-68
2021/08/21 04:39:51;;;;;;;18.27;7.40;;;;;;;;;;6126799;23;20001;-69
2021/08/21 04:42:17;;;;;;;15.48;6.97;;;;;;;;;;6127147;23;20442;-69
2021/08/21 04:44:44;;;;;;;15.52;7.80;;;;;;;;;;6127352;23;20057;-68
2021/08/21 04:47:10;;;;;;;14.48;8.38;;;;;;;;;;6127417;23;20427;-69
2021/08/21 04:49:36;;;;;;;14.80;7.50;;;;;;;;;;6127430;23;20446;-70
2021/08/21 04:52:04;;;;;;;16.60;8.02;;;;;;;;;;6127185;23;19998;-70
2021/08/21 04:54:30;;;;;;;12.63;7.35;;;;;;;;;;6127388;23;20384;-70
2021/08/21 04:56:56;;;;;;;13.38;7.55;;;;;;;;;;6127456;23;20025;-70
2021/08/21 04:59:22;;;;;;;14.82;8.40;;;;;;;;;;6127007;23;20058;-69
2021/08/21 05:01:48;;;;;;;14.45;8.70;;;;;;;;;;6127622;23;20025;-69
2021/08/21 05:04:13;;;;;;;13.02;7.18;;;;;;;;;;6126690;23;20001;-70
2021/08/21 05:06:38;;;;;;;11.70;7.55;;;;;;;;;;6127192;23;20032;-70
2021/08/21 05:09:05;;;;;;;11.38;7.75;;;;;;;;;;6127205;23;20006;-70
2021/08/21 05:11:31;;;;;;;11.90;7.97;;;;;;;;;;6127516;23;20073;-68
2021/08/21 05:13:57;;;;;;;11.43;7.60;;;;;;;;;;6126959;23;19998;-67
2021/08/21 05:16:22;;;;;;;12.25;7.00;;;;;;;;;;6126971;23;20021;-70
2021/08/21 05:18:57;;;;;;;13.77;7.00;;;;;;;;;;6127186;23;20060;-70
2021/08/21 05:21:26;;;;;;;8.60;6.75;;;;;;;;;;6101094;23;20423;-71
2021/08/21 05:23:55;;;;;;;9.88;6.43;;;;;;;;;;6101200;23;20002;-70
2021/08/21 05:26:21;;;;;;;10.93;6.82;;;;;;;;;;6126845;23;19998;-69
2021/08/21 05:28:46;;;;;;;8.32;5.78;;;;;;;;;;6127032;23;20009;-70
2021/08/21 05:31:12;;;;;;;10.45;6.45;;;;;;;;;;6127088;23;20002;-68
2021/08/21 05:33:38;;;;;;;9.90;6.70;;;;;;;;;;6126936;23;19997;-71
2021/08/21 05:36:04;;;;;;;12.63;6.43;;;;;;;;;;6126783;23;20004;-71
2021/08/21 05:38:31;;;;;;;8.55;5.75;;;;;;;;;;6126899;23;20081;-70
2021/08/21 05:40:56;;;;;;;7.47;5.47;;;;;;;;;;6126858;23;20002;-69
2021/08/21 05:43:23;;;;;;;9.00;6.13;;;;;;;;;;6126879;23;20490;-69
2021/08/21 05:45:49;;;;;;;9.65;5.40;;;;;;;;;;6127088;23;19994;-70
2021/08/21 05:48:15;;;;;;;7.82;5.57;;;;;;;;;;6126570;23;20328;-71
2021/08/21 05:50:40;;;;;;;11.50;5.72;;;;;;;;;;6126517;23;20064;-70
2021/08/21 05:53:07;;;;;;;11.00;5.25;;;;;;;;;;6126848;23;20432;-68
2021/08/21 05:55:34;;;;;;;10.18;6.00;;;;;;;;;;6126740;23;20000;-71
2021/08/21 05:58:00;;;;;;;7.32;5.38;;;;;;;;;;6126158;23;20524;-69
2021/08/21 06:00:26;;;;;;;9.85;5.25;;;;;;;;;;6126802;23;20044;-71
2021/08/21 06:02:52;;;;;;;9.02;5.07;;;;;;;;;;6126659;23;19998;-67
2021/08/21 06:05:18;;;;;;;10.52;5.13;;;;;;;;;;6126379;23;20045;-69
2021/08/21 06:07:44;;;;;;;7.28;5.00;;;;;;;;;;6126944;23;20006;-67
2021/08/21 06:10:11;;;;;;;12.25;5.50;;;;;;;;;;6126286;23;20002;-68
2021/08/21 06:12:37;;;;;;;8.63;4.78;;;;;;;;;;6126569;23;20132;-71
2021/08/21 06:15:04;;;;;;;10.85;5.03;;;;;;;;;;6126585;23;19998;-69
2021/08/21 06:17:30;;;;;;;8.98;5.20;;;;;;;;;;6126573;23;20002;-68
2021/08/21 06:19:58;;;;;;;8.18;4.60;;;;;;;;;;6126536;23;20006;-70
2021/08/21 06:22:24;;;;;;;6.03;4.10;;;;;;;;;;6126437;23;20049;-70
2021/08/21 06:24:51;;;;;;;7.53;4.03;;;;;;;;;;6126566;23;20001;-69
2021/08/21 06:27:17;;;;;;;8.07;3.95;;;;;;;;;;6126429;23;20493;-68
2021/08/21 06:29:42;;;;;;;6.90;3.55;;;;;;;;;;6126474;23;20387;-68
2021/08/21 06:32:09;;;;;;;6.97;4.18;;;;;;;;;;6126157;23;20005;-67
2021/08/21 06:34:36;;;;;;;5.15;3.50;;;;;;;;;;6126396;23;20079;-69
2021/08/21 06:37:03;;;;;;;10.75;4.68;;;;;;;;;;6126338;23;20077;-68
2021/08/21 06:39:28;;;;;;;8.55;4.75;;;;;;;;;;6126139;23;20454;-69
2021/08/21 06:41:54;;;;;;;8.50;5.38;;;;;;;;;;6126533;23;19998;-66
2021/08/21 06:44:20;;;;;;;6.88;4.38;;;;;;;;;;6126126;23;20439;-67
2021/08/21 06:46:47;;;;;;;9.55;5.50;;;;;;;;;;6126315;23;19998;-68
2021/08/21 06:49:12;;;;;;;10.68;5.90;;;;;;;;;;6126373;23;20034;-69
2021/08/21 06:51:38;;;;;;;6.82;4.68;;;;;;;;;;6126176;23;20339;-68
2021/08/21 06:54:05;;;;;;;15.77;4.95;;;;;;;;;;6125904;23;20025;-69
2021/08/21 06:56:31;;;;;;;9.52;5.00;;;;;;;;;;6126105;23;20090;-67
2021/08/21 06:58:57;;;;;;;7.43;4.68;;;;;;;;;;6126217;23;20060;-68
2021/08/21 07:01:23;;;;;;;6.95;3.72;;;;;;;;;;6126213;23;20451;-70
2021/08/21 07:03:50;;;;;;;8.60;3.67;;;;;;;;;;6126107;23;20002;-68
2021/08/21 07:06:16;;;;;;;6.97;3.50;;;;;;;;;;6125615;23;20018;-70
2021/08/21 07:08:42;;;;;;;5.05;3.10;;;;;;;;;;6126141;23;19998;-67
2021/08/21 07:11:08;;;;;;;6.07;3.40;;;;;;;;;;6125851;23;20080;-69
2021/08/21 07:13:35;;;;;;;5.55;3.50;;;;;;;;;;6126122;23;20002;-71
2021/08/21 07:16:01;;;;;;;8.07;3.55;;;;;;;;;;6125950;23;20002;-69
2021/08/21 07:18:27;;;;;;;3.97;3.10;;;;;;;;;;6126028;23;20006;-69
2021/08/21 07:20:54;;;;;;;3.25;2.80;;;;;;;;;;6126152;23;19998;-69
2021/08/21 07:23:21;;;;;;;6.03;3.17;;;;;;;;;;6125996;23;20332;-69
2021/08/21 07:25:46;;;;;;;5.43;3.60;;;;;;;;;;6125939;23;20328;-68
2021/08/21 07:28:13;;;;;;;4.50;3.13;;;;;;;;;;6125700;23;20089;-69
2021/08/21 07:30:39;;;;;;;5.35;3.60;;;;;;;;;;6126076;23;20056;-69
2021/08/21 07:33:06;;;;;;;8.30;3.95;;;;;;;;;;6125928;23;19998;-68
2021/08/21 07:35:32;;;;;;;5.70;3.13;;;;;;;;;;6125922;23;20077;-70
2021/08/21 07:37:58;;;;;;;8.27;3.85;;;;;;;;;;6125924;23;20005;-67
2021/08/21 07:40:24;;;;;;;14.20;4.30;;;;;;;;;;6125476;23;20004;-69
2021/08/21 07:42:50;;;;;;;7.38;4.03;;;;;;;;;;6126006;23;19998;-71
2021/08/21 07:45:17;;;;;;;6.15;3.88;;;;;;;;;;6099915;23;20005;-70
2021/08/21 07:47:42;;;;;;;7.78;3.75;;;;;;;;;;6100156;23;20352;-70
2021/08/21 07:50:08;;;;;;;8.25;3.72;;;;;;;;;;6125658;23;20001;-68
2021/08/21 07:52:35;;;;;;;5.07;3.15;;;;;;;;;;6126102;23;20029;-70
2021/08/21 07:55:01;;;;;;;3.50;2.75;;;;;;;;;;6125460;23;20446;-68
2021/08/21 07:57:27;;;;;;;6.20;3.63;;;;;;;;;;6125785;23;20002;-71
2021/08/21 07:59:53;;;;;;;5.57;3.25;;;;;;;;;;6125889;23;20012;-69
2021/08/21 08:02:19;;;;;;;3.38;2.83;;;;;;;;;;6125481;23;21006;-68
2021/08/21 08:04:45;;;;;;;4.13;3.10;;;;;;;;;;6125222;23;20444;-71
2021/08/21 08:07:11;;;;;;;5.78;3.20;;;;;;;;;;6125733;23;20457;-69
2021/08/21 08:09:37;;;;;;;4.15;3.22;;;;;;;;;;6125386;23;20025;-68
2021/08/21 08:12:04;;;;;;;6.60;2.63;;;;;;;;;;6125409;23;20060;-69
2021/08/21 08:14:29;;;;;;;4.55;3.15;;;;;;;;;;6126538;23;20420;-69
2021/08/21 08:16:55;;;;;;;4.95;3.13;;;;;;;;;;6128136;23;20013;-70
2021/08/21 08:19:21;;;;;;;5.60;2.60;;;;;;;;;;6127297;23;20456;-71
2021/08/21 08:21:47;;;;;;;4.28;3.05;;;;;;;;;;6127690;23;20009;-69
2021/08/21 08:24:14;;;;;;;8.68;2.90;;;;;;;;;;6127228;23;20084;-69
2021/08/21 08:26:40;;;;;;;3.92;2.55;;;;;;;;;;6127894;23;20013;-67
2021/08/21 08:29:06;;;;;;;4.78;2.78;;;;;;;;;;6127584;23;20033;-66
2021/08/21 08:31:32;;;;;;;6.00;2.63;;;;;;;;;;6127608;23;20111;-68
2021/08/21 08:33:59;;;;;;;2.95;2.40;;;;;;;;;;6127546;23;20034;-70
2021/08/21 08:36:24;;;;;;;3.75;2.80;;;;;;;;;;6127497;23;19998;-70
2021/08/21 08:38:50;;;;;;;3.45;2.35;;;;;;;;;;6127224;23;20016;-68
2021/08/21 08:41:20;;;;;;;3.53;2.60;;;;;;;;;;6127315;23;19998;-67
2021/08/21 08:43:46;;;;;;;4.82;2.72;;;;;;;;;;6127215;23;19998;-71
2021/08/21 08:46:11;;;;;;;3.38;2.60;;;;;;;;;;6127410;23;20067;-70
2021/08/21 08:48:38;;;;;;;4.68;2.30;;;;;;;;;;6127363;23;20498;-69
2021/08/21 08:51:05;;;;;;;5.00;2.50;;;;;;;;;;6127269;23;20338;-71
2021/08/21 08:53:31;;;;;;;4.82;2.55;;;;;;;;;;6127027;23;20002;-69
2021/08/21 08:55:57;;;;;;;4.47;2.72;;;;;;;;;;6127412;23;20025;-70
2021/08/21 08:58:23;;;;;;;4.00;2.45;;;;;;;;;;6126852;23;20009;-71
2021/08/21 09:00:50;;;;;;;3.13;2.38;;;;;;;;;;6127691;23;19997;-67
2021/08/21 09:03:21;;;;;;;4.35;2.83;;;;;;;;;;6127203;23;20026;-70
2021/08/21 09:05:47;;;;;;;4.53;2.78;;;;;;;;;;6095967;23;20093;-71
2021/08/21 09:08:26;;;;;;;5.28;2.50;;;;;;;;;;6097500;23;20005;-71
2021/08/21 09:10:51;;;;;;;3.30;2.17;;;;;;;;;;6098074;23;20006;-70
2021/08/21 09:13:18;;;;;;;3.55;2.75;;;;;;;;;;6097920;23;20424;-71
2021/08/21 09:15:46;;;;;;;7.28;2.90;;;;;;;;;;6097755;23;20133;-68
2021/08/21 09:18:13;;;;;;;4.43;2.30;;;;;;;;;;6097461;23;20428;-68
2021/08/21 09:20:58;;;;;;;6.63;2.90;;;;;;;;;;6097647;23;20450;-68
2021/08/21 09:23:26;;;;;;;3.92;2.58;;;;;;;;;;6097997;23;20007;-69
2021/08/21 09:26:03;;;;;;;2.83;2.47;;;;;;;;;;6097942;23;20073;-71
2021/08/21 09:28:29;;;;;;;4.15;2.55;;;;;;;;;;6097772;23;20443;-69
2021/08/21 09:31:09;;;;;;;3.20;2.50;;;;;;;;;;6097546;23;20001;-68
2021/08/21 09:33:38;;;;;;;4.32;2.40;;;;;;;;;;6098046;23;20065;-69
2021/08/21 09:36:05;;;;;;;4.65;2.72;;;;;;;;;;6097511;23;20006;-70
2021/08/21 09:38:31;;;;;;;4.70;3.13;;;;;;;;;;6095248;23;20010;-69
2021/08/21 09:41:03;;;;;;;20.98;2.97;;;;;;;;;;6097507;23;20003;-69
2021/08/21 09:43:31;;;;;;;5.00;2.60;;;;;;;;;;6097467;23;20006;-71
2021/08/21 09:46:15;;;;;;;3.08;2.60;;;;;;;;;;6095060;23;20452;-70
2021/08/21 09:49:00;;;;;;;3.95;2.72;;;;;;;;;;6097642;23;20007;-68
2021/08/21 09:51:44;;;;;;;5.90;2.90;;;;;;;;;;6097323;23;20006;-70
2021/08/21 09:54:14;;;;;;;4.20;3.10;;;;;;;;;;6097207;23;20085;-66
2021/08/21 09:56:41;;;;;;;4.95;2.70;;;;;;;;;;6097823;23;20012;-69
2021/08/21 09:59:07;;;;;;;3.90;2.70;;;;;;;;;;6097516;23;20010;-68
2021/08/21 10:01:33;;;;;;;3.03;2.50;;;;;;;;;;6097388;23;20013;-66
2021/08/21 10:04:00;;;;;;;3.67;2.47;;;;;;;;;;6096970;23;20057;-65
2021/08/21 10:06:27;;;;;;;3.78;2.50;;;;;;;;;;6121107;23;20022;-69
2021/08/21 10:08:57;;;;;;;2.97;2.67;;;;;;;;;;6126923;23;20420;-71
2021/08/21 10:11:22;;;;;;;3.80;2.53;;;;;;;;;;6126900;23;20020;-69
2021/08/21 10:13:48;;;;;;;3.65;2.50;;;;;;;;;;6126569;23;20415;-70
2021/08/21 10:16:14;;;;;;;4.65;2.20;;;;;;;;;;6126452;23;20036;-67
2021/08/21 10:18:41;;;;;;;2.78;2.45;;;;;;;;;;6126802;23;20376;-67
2021/08/21 10:21:07;;;;;;;5.55;2.70;;;;;;;;;;6126416;23;20037;-70
2021/08/21 10:23:40;;;;;;;9.25;3.63;;;;;;;;;;6126579;23;20002;-68
2021/08/21 10:26:19;;;;;;;3.15;2.50;;;;;;;;;;6126258;23;20005;-68
2021/08/21 10:28:45;;;;;;;4.70;2.30;;;;;;;;;;6126421;23;20037;-70
2021/08/21 10:31:30;;;;;;;3.47;2.25;;;;;;;;;;6100721;23;19994;-70
2021/08/21 10:33:56;;;;;;;5.60;2.60;;;;;;;;;;6126289;23;20001;-69
2021/08/21 10:36:41;;;;;;;3.35;2.55;;;;;;;;;;6125922;23;20001;-68
2021/08/21 10:39:21;;;;;;;3.67;2.53;;;;;;;;;;6126402;23;20006;-69
2021/08/21 10:41:48;;;;;;;3.35;2.38;;;;;;;;;;6100598;23;20352;-71
2021/08/21 10:44:33;;;;;;;3.50;2.45;;;;;;;;;;6125942;23;19998;-70
2021/08/21 10:47:00;;;;;;;4.85;2.38;;;;;;;;;;6126664;23;20005;-69
2021/08/21 10:49:45;;;;;;;3.10;2.33;;;;;;;;;;6126349;23;19998;-69
2021/08/21 10:52:29;;;;;;;3.63;2.53;;;;;;;;;;6126054;23;20069;-70
2021/08/21 10:54:55;;;;;;;3.92;2.50;;;;;;;;;;6126135;23;20002;-69
2021/08/21 10:57:28;;;;;;;2.75;2.25;;;;;;;;;;6126285;23;20049;-69
2021/08/21 10:59:55;;;;;;;3.40;1.88;;;;;;;;;;6126149;23;20086;-69
2021/08/21 11:02:29;;;;;;;4.93;2.22;;;;;;;;;;6125776;23;20002;-70
2021/08/21 11:05:02;;;;;;;5.47;2.50;;;;;;;;;;6125963;23;20042;-69
2021/08/21 11:07:39;;;;;;;6.30;2.47;;;;;;;;;;6125498;23;20006;-69
2021/08/21 11:10:13;;;;;;;5.78;2.72;;;;;;;;;;6125959;23;20037;-71
2021/08/21 11:12:39;;;;;;;3.55;2.08;;;;;;;;;;6126028;23;20001;-68
2021/08/21 11:15:23;;;;;;;2.97;2.17;;;;;;;;;;6126301;23;19997;-67
2021/08/21 11:17:50;;;;;;;2.53;2.08;;;;;;;;;;6125831;23;20005;-68
2021/08/21 11:20:26;;;;;;;3.13;2.13;;;;;;;;;;6125662;23;20080;-67
2021/08/21 11:23:00;;;;;;;2.97;2.00;;;;;;;;;;6126072;23;20086;-69
2021/08/21 11:25:26;;;;;;;2.25;1.80;;;;;;;;;;6125838;23;20001;-70
2021/08/21 11:28:02;;;;;;;3.00;2.05;;;;;;;;;;6125858;23;20000;-70
2021/08/21 11:30:28;;;;;;;2.22;2.03;;;;;;;;;;6100009;23;20002;-66
2021/08/21 11:32:58;;;;;;;3.88;2.53;;;;;;;;;;6094307;23;20093;-69
2021/08/21 11:35:24;;;;;;;2.88;2.35;;;;;;;;;;6124067;23;20006;-69
2021/08/21 11:37:52;;;;;;;3.80;1.90;;;;;;;;;;6125909;23;20058;-70
2021/08/21 11:40:19;;;;;;;3.00;2.13;;;;;;;;;;6125517;23;20001;-68
2021/08/21 11:42:46;;;;;;;2.13;1.88;;;;;;;;;;6099711;23;20002;-69
2021/08/21 11:45:14;;;;;;;1.92;1.67;;;;;;;;;;6125964;23;19998;-70
2021/08/21 11:47:40;;;;;;;2.72;1.88;;;;;;;;;;6094267;23;20005;-69
2021/08/21 11:50:20;;;;;;;2.20;2.03;;;;;;;;;;6123745;23;20002;-69
2021/08/21 11:52:46;;;;;;;2.70;1.83;;;;;;;;;;6125629;23;20033;-67
2021/08/21 11:55:13;;;;;;;2.85;1.70;;;;;;;;;;6125695;23;20044;-67
2021/08/21 11:57:43;;;;;;;2.05;1.70;;;;;;;;;;6125524;23;20037;-68
2021/08/21 12:00:13;;;;;;;2.75;1.85;;;;;;;;;;6125384;23;20415;-69
2021/08/21 12:02:52;;;;;;;2.50;1.85;;;;;;;;;;6125539;23;20002;-69
2021/08/21 12:05:25;;;;;;;2.25;1.58;;;;;;;;;;6125206;23;20073;-69
2021/08/21 12:07:52;;;;;;;1.80;1.42;;;;;;;;;;6125184;23;20013;-67
2021/08/21 12:10:18;;;;;;;3.78;1.77;;;;;;;;;;6125374;23;20013;-71
2021/08/21 12:12:51;;;;;;;6.30;1.48;;;;;;;;;;6125640;23;19998;-69
2021/08/21 12:15:17;;;;;;;3.30;1.70;;;;;;;;;;6125731;23;20005;-67
2021/08/21 12:17:43;;;;;;;3.25;1.40;;;;;;;;;;6125575;23;19998;-67
2021/08/21 12:20:09;;;;;;;6.07;1.80;;;;;;;;;;6125255;23;20009;-68
2021/08/21 12:22:35;;;;;;;2.67;1.58;;;;;;;;;;6125423;23;20033;-69
2021/08/21 12:25:02;;;;;;;2.05;1.77;;;;;;;;;;6125868;23;20002;-70
2021/08/21 12:27:28;;;;;;;2.17;1.75;;;;;;;;;;6125501;23;20001;-69
2021/08/21 12:30:12;;;;;;;1.63;1.40;;;;;;;;;;6125751;23;20002;-69
2021/08/21 12:32:38;;;;;;;3.00;1.60;;;;;;;;;;6125474;23;20428;-67
2021/08/21 12:35:12;;;;;;;1.60;1.50;;;;;;;;;;6125467;23;19998;-71
2021/08/21 12:37:38;;;;;;;1.50;1.33;;;;;;;;;;6125420;23;20006;-68
2021/08/21 12:40:08;;;;;;;3.17;1.30;;;;;;;;;;6125364;23;20012;-71
2021/08/21 12:42:34;;;;;;;1.65;1.20;;;;;;;;;;6125569;23;20005;-68
2021/08/21 12:45:15;;;;;;;1.75;1.30;;;;;;;;;;6125860;23;20446;-71
2021/08/21 12:47:41;;;;;;;1.40;1.30;;;;;;;;;;6125335;23;20009;-69
2021/08/21 12:50:11;;;;;;;1.65;1.40;;;;;;;;;;6125473;23;20033;-68
2021/08/21 12:52:37;;;;;;;1.75;1.40;;;;;;;;;;6099957;23;20002;-68
2021/08/21 12:55:05;;;;;;;1.40;1.20;;;;;;;;;;6125518;23;20002;-69
2021/08/21 12:57:44;;;;;;;1.40;1.30;;;;;;;;;;6125467;23;20437;-70
2021/08/21 13:00:16;;;;;;;2.03;1.20;;;;;;;;;;6125431;23;20060;-69
2021/08/21 13:02:45;;;;;;;1.75;1.30;;;;;;;;;;6100949;23;20005;-66
2021/08/21 13:05:13;;;;;;;3.50;1.30;;;;;;;;;;6101468;23;20068;-69
2021/08/21 13:07:41;;;;;;;1.40;1.17;;;;;;;;;;6126602;23;20018;-69
2021/08/21 13:10:08;;;;;;;1.50;1.30;;;;;;;;;;6126969;23;20431;-69
2021/08/21 13:12:34;;;;;;;2.75;1.25;;;;;;;;;;6126983;23;20057;-67
2021/08/21 13:15:00;;;;;;;3.22;1.38;;;;;;;;;;6127374;23;20006;-69
2021/08/21 13:17:25;;;;;;;1.90;1.50;;;;;;;;;;6127141;23;20009;-68
2021/08/21 13:19:51;;;;;;;2.03;1.30;;;;;;;;;;6127152;23;20010;-68
2021/08/21 13:22:18;;;;;;;1.77;1.10;;;;;;;;;;6126832;23;19998;-71
2021/08/21 13:24:44;;;;;;;1.90;1.48;;;;;;;;;;6127202;23;20014;-68
2021/08/21 13:27:10;;;;;;;3.00;1.73;;;;;;;;;;6127277;23;20040;-69
2021/08/21 13:29:35;;;;;;;1.70;1.20;;;;;;;;;;6127216;23;20013;-69
2021/08/21 13:32:01;;;;;;;2.28;1.30;;;;;;;;;;6100903;23;20428;-69
2021/08/21 13:34:28;;;;;;;1.52;1.30;;;;;;;;;;6126890;23;20307;-68
2021/08/21 13:36:54;;;;;;;1.70;1.45;;;;;;;;;;6127105;23;20029;-67
2021/08/21 13:39:19;;;;;;;2.22;1.45;;;;;;;;;;6126812;23;20088;-68
2021/08/21 13:41:45;;;;;;;2.75;1.45;;;;;;;;;;6126806;23;20017;-69
2021/08/21 13:44:12;;;;;;;1.55;1.30;;;;;;;;;;6100585;23;20012;-67
2021/08/21 13:46:38;;;;;;;1.45;1.35;;;;;;;;;;6127197;23;20006;-68
2021/08/21 13:49:03;;;;;;;2.67;1.60;;;;;;;;;;6127229;23;20399;-69
2021/08/21 13:51:29;;;;;;;1.42;1.30;;;;;;;;;;6126761;23;20002;-70
2021/08/21 13:53:55;;;;;;;2.25;1.35;;;;;;;;;;6126800;23;20025;-69
2021/08/21 13:56:21;;;;;;;2.10;1.55;;;;;;;;;;6126380;23;19998;-69
2021/08/21 13:58:46;;;;;;;3.10;1.70;;;;;;;;;;6126471;23;20010;-68
2021/08/21 14:01:11;;;;;;;3.85;1.48;;;;;;;;;;6126773;23;20081;-70
2021/08/21 14:03:38;;;;;;;2.38;1.52;;;;;;;;;;6100492;23;20458;-69
2021/08/21 14:06:05;;;;;;;1.55;1.45;;;;;;;;;;6126177;23;20048;-69
2021/08/21 14:08:30;;;;;;;2.08;1.48;;;;;;;;;;6126536;23;20015;-68
2021/08/21 14:10:55;;;;;;;1.77;1.27;;;;;;;;;;6126901;23;20001;-69
2021/08/21 14:13:21;;;;;;;2.47;1.60;;;;;;;;;;6126185;23;20009;-71
2021/08/21 14:15:47;;;;;;;1.30;1.20;;;;;;;;;;6126351;23;20097;-67
2021/08/21 14:18:13;;;;;;;2.42;1.90;;;;;;;;;;6126232;23;20006;-69
2021/08/21 14:20:40;;;;;;;2.83;1.75;;;;;;;;;;6126507;23;20026;-70
2021/08/21 14:23:08;;;;;;;3.88;1.70;;;;;;;;;;6126451;23;19994;-70
2021/08/21 14:25:34;;;;;;;1.67;1.40;;;;;;;;;;6126572;23;20475;-68
2021/08/21 14:28:02;;;;;;;1.98;1.63;;;;;;;;;;6126177;23;19998;-67
2021/08/21 14:30:28;;;;;;;2.05;1.58;;;;;;;;;;6126518;23;20099;-70
2021/08/21 14:32:53;;;;;;;1.90;1.42;;;;;;;;;;6126574;23;20420;-69
2021/08/21 14:35:19;;;;;;;2.35;1.67;;;;;;;;;;6126444;23;20053;-70
2021/08/21 14:37:45;;;;;;;2.22;1.52;;;;;;;;;;6126131;23;19998;-66
2021/08/21 14:40:12;;;;;;;1.67;1.45;;;;;;;;;;6126115;23;20335;-69